Time;durP1;ratioP1;P1;durP2;ratioP2;P2;SDS_P1;SDS_P2;PMS_P1;PMS_P2;Temp;Humidity;BMP_temperature;BMP_pressure;BME280_temperature;BME280_humidity;BME280_pressure;Samples;Min_cycle;Max_cycle;Signal;HPM_P1;HPM_P2
2020/12/12 00:01:07;;;;;;;27.48;15.13;;;;;;;-2.02;76.93;99618.55;1730372;82;21294;-67
2020/12/12 00:03:35;;;;;;;29.35;14.93;;;;;;;-2.02;76.91;99611.65;1728794;82;21285;-66
2020/12/12 00:06:02;;;;;;;24.15;13.25;;;;;;;-1.96;76.87;99623.61;1723751;82;21274;-67
2020/12/12 00:08:29;;;;;;;30.00;15.35;;;;;;;-1.94;76.95;99612.78;1730450;82;21136;-67
2020/12/12 00:10:56;;;;;;;26.73;13.35;;;;;;;-1.93;76.78;99622.27;1727280;82;21120;-68
2020/12/12 00:13:24;;;;;;;28.07;13.88;;;;;;;-1.93;76.91;99623.98;1728497;82;21179;-68
2020/12/12 00:15:52;;;;;;;29.05;16.23;;;;;;;-1.91;76.86;99614.00;1738374;82;21310;-67
2020/12/12 00:18:19;;;;;;;28.75;15.72;;;;;;;-1.92;76.92;99618.77;1738139;82;21298;-68
2020/12/12 00:20:46;;;;;;;31.50;14.80;;;;;;;-1.95;76.96;99620.14;1739610;82;21569;-67
2020/12/12 00:23:13;;;;;;;25.43;12.60;;;;;;;-1.91;77.01;99599.74;1739110;82;21167;-67
2020/12/12 00:25:41;;;;;;;29.90;14.28;;;;;;;-1.93;77.01;99604.13;1739361;82;21159;-66
2020/12/12 00:28:08;;;;;;;35.03;15.30;;;;;;;-1.92;77.07;99601.08;1736965;82;21290;-67
2020/12/12 00:30:35;;;;;;;27.07;13.93;;;;;;;-1.89;77.03;99601.87;1739271;82;21741;-67
2020/12/12 00:33:02;;;;;;;25.82;13.03;;;;;;;-1.86;76.91;99598.36;1716672;82;21174;-67
2020/12/12 00:35:30;;;;;;;28.47;14.58;;;;;;;-1.87;76.95;99597.48;1723352;83;21626;-67
2020/12/12 00:37:57;;;;;;;27.60;12.63;;;;;;;-1.81;76.85;99592.17;1723528;82;21308;-70
2020/12/12 00:40:25;;;;;;;28.67;15.00;;;;;;;-1.85;77.06;99595.72;1723010;83;21206;-68
2020/12/12 00:42:52;;;;;;;27.27;13.90;;;;;;;-1.81;77.04;99588.73;1723169;83;21297;-68
2020/12/12 00:45:19;;;;;;;29.80;15.10;;;;;;;-1.86;77.20;99588.83;1723333;83;21320;-68
2020/12/12 00:47:47;;;;;;;24.47;13.62;;;;;;;-1.84;77.08;99581.88;1724321;82;21097;-68
2020/12/12 00:50:15;;;;;;;30.32;14.35;;;;;;;-1.84;77.15;99576.70;1723143;83;21628;-68
2020/12/12 00:53:29;;;;;;;28.25;15.28;;;;;;;-1.76;77.06;99586.05;1787234;80;22941;-68
2020/12/12 00:55:56;;;;;;;32.73;16.40;;;;;;;-1.76;76.96;99591.23;1761683;81;21713;-68
2020/12/12 00:58:25;;;;;;;29.70;14.70;;;;;;;-1.74;76.85;99589.45;1756495;81;21181;-68
2020/12/12 01:00:56;;;;;;;28.17;13.58;;;;;;;-1.71;76.88;99590.23;1751598;81;21130;-69
2020/12/12 01:03:24;;;;;;;23.40;12.90;;;;;;;-1.71;76.82;99588.94;1751389;82;21135;-68
2020/12/12 01:05:53;;;;;;;26.42;13.65;;;;;;;-1.74;76.97;99590.74;1751427;82;21643;-69
2020/12/12 01:08:21;;;;;;;25.25;13.75;;;;;;;-1.73;76.96;99595.05;1751385;82;21551;-68
2020/12/12 01:10:48;;;;;;;27.13;14.15;;;;;;;-1.67;76.99;99591.86;1752490;81;21174;-69
2020/12/12 01:13:15;;;;;;;25.20;13.40;;;;;;;-1.68;76.95;99588.86;1752167;81;21282;-68
2020/12/12 01:15:42;;;;;;;25.35;13.72;;;;;;;-1.65;76.91;99594.42;1751312;82;21151;-68
2020/12/12 01:18:09;;;;;;;25.82;14.47;;;;;;;-1.65;76.90;99577.14;1750577;82;21178;-68
2020/12/12 01:20:39;;;;;;;23.38;12.18;;;;;;;-1.71;77.07;99582.45;1751454;82;21115;-68
2020/12/12 01:23:07;;;;;;;25.23;13.98;;;;;;;-1.68;77.17;99577.64;1730202;81;21134;-68
2020/12/12 01:25:37;;;;;;;26.80;13.30;;;;;;;-1.69;77.16;99583.71;1761445;81;21281;-68
2020/12/12 01:28:06;;;;;;;28.45;16.05;;;;;;;-1.71;77.19;99582.45;1760988;81;21174;-68
2020/12/12 01:30:34;;;;;;;27.32;13.72;;;;;;;-1.67;77.21;99589.27;1753847;80;21162;-69
2020/12/12 01:33:02;;;;;;;22.85;12.90;;;;;;;-1.65;77.21;99581.45;1750185;81;21142;-68
2020/12/12 01:35:29;;;;;;;25.77;12.73;;;;;;;-1.64;77.15;99590.94;1746317;82;21207;-69
2020/12/12 01:37:57;;;;;;;31.60;13.83;;;;;;;-1.59;77.12;99591.69;1728635;82;21186;-67
2020/12/12 01:40:24;;;;;;;26.90;13.08;;;;;;;-1.60;77.32;99584.79;1695688;84;21321;-69
2020/12/12 01:42:51;;;;;;;26.23;13.78;;;;;;;-1.56;77.16;99585.58;1691972;84;21199;-69
2020/12/12 01:45:19;;;;;;;25.23;13.68;;;;;;;-1.54;77.05;99583.36;1712673;84;21178;-69
2020/12/12 01:47:46;;;;;;;24.70;14.50;;;;;;;-1.54;77.02;99587.70;1729372;83;21320;-69
2020/12/12 01:50:14;;;;;;;27.65;13.55;;;;;;;-1.51;76.98;99593.67;1730914;83;21353;-69
2020/12/12 01:52:41;;;;;;;23.57;12.63;;;;;;;-1.54;77.04;99579.47;1726337;83;21190;-69
2020/12/12 01:55:08;;;;;;;25.17;13.00;;;;;;;-1.47;76.84;99588.41;1723225;83;21190;-69
2020/12/12 01:57:36;;;;;;;23.22;12.55;;;;;;;-1.47;76.85;99583.22;1710827;83;21164;-68
2020/12/12 02:00:04;;;;;;;24.75;13.38;;;;;;;-1.50;76.91;99579.83;1670555;86;22314;-68
2020/12/12 02:02:31;;;;;;;22.52;11.75;;;;;;;-1.45;76.67;99581.45;1670508;86;21694;-69
2020/12/12 02:04:59;;;;;;;27.48;13.62;;;;;;;-1.49;76.71;99572.88;1669881;86;21320;-71
2020/12/12 02:07:26;;;;;;;21.37;12.05;;;;;;;-1.46;76.35;99587.06;1670654;84;21198;-69
2020/12/12 02:09:53;;;;;;;24.40;12.18;;;;;;;-1.40;76.38;99578.30;1670210;86;22185;-69
2020/12/12 02:12:21;;;;;;;24.47;12.07;;;;;;;-1.40;76.39;99583.03;1641265;86;21186;-69
2020/12/12 02:14:48;;;;;;;26.00;12.70;;;;;;;-1.44;76.61;99577.97;1670334;86;21119;-69
2020/12/12 02:17:16;;;;;;;23.27;12.80;;;;;;;-1.49;76.50;99571.12;1671501;86;21219;-69
2020/12/12 02:19:44;;;;;;;26.40;13.18;;;;;;;-1.47;76.54;99575.01;1671376;85;21706;-69
2020/12/12 02:22:11;;;;;;;22.00;12.93;;;;;;;-1.49;76.50;99572.42;1671513;86;21226;-68
2020/12/12 02:24:38;;;;;;;20.60;11.83;;;;;;;-1.47;76.52;99574.14;1671499;86;21155;-68
2020/12/12 02:27:08;;;;;;;25.27;13.32;;;;;;;-1.51;76.12;99562.98;1671540;86;21631;-68
2020/12/12 02:29:46;;;;;;;23.73;11.75;;;;;;;-1.48;76.19;99564.22;1671276;85;21182;-68
2020/12/12 02:32:10;;;;;;;23.55;12.37;;;;;;;-1.52;76.25;99564.73;1670923;85;21203;-68
2020/12/12 02:34:37;;;;;;;23.55;13.35;;;;;;;-1.51;76.20;99561.25;1671386;86;21829;-68
2020/12/12 02:37:04;;;;;;;22.27;12.50;;;;;;;-1.56;76.09;99560.52;1671479;86;21179;-68
2020/12/12 02:39:32;;;;;;;25.32;12.65;;;;;;;-1.55;76.04;99563.52;1671236;86;21235;-68
2020/12/12 02:41:59;;;;;;;22.98;12.50;;;;;;;-1.59;76.07;99560.56;1671654;86;21742;-68
2020/12/12 02:44:27;;;;;;;27.67;13.38;;;;;;;-1.57;75.77;99558.80;1671799;84;21171;-68
2020/12/12 02:46:54;;;;;;;25.00;12.65;;;;;;;-1.56;75.89;99565.70;1671779;84;21583;-68
2020/12/12 02:49:21;;;;;;;21.73;12.37;;;;;;;-1.58;75.72;99561.44;1651955;86;21205;-68
2020/12/12 02:51:49;;;;;;;23.40;12.05;;;;;;;-1.63;75.63;99555.05;1669817;86;21175;-68
2020/12/12 02:54:16;;;;;;;24.43;12.85;;;;;;;-1.62;75.72;99560.66;1655706;86;21332;-68
2020/12/12 02:56:43;;;;;;;26.20;12.05;;;;;;;-1.62;75.78;99547.69;1671550;86;21316;-68
2020/12/12 02:59:11;;;;;;;26.62;12.80;;;;;;;-1.62;75.76;99561.08;1671175;86;21170;-68
2020/12/12 03:01:41;;;;;;;23.73;11.90;;;;;;;-1.59;75.80;99563.62;1671078;86;21203;-68
2020/12/12 03:04:10;;;;;;;23.83;12.25;;;;;;;-1.66;75.82;99557.73;1671221;86;21149;-68
2020/12/12 03:06:43;;;;;;;24.95;11.63;;;;;;;-1.63;75.81;99569.31;1671080;86;21204;-68
2020/12/12 03:09:06;;;;;;;23.77;11.97;;;;;;;-1.68;76.00;99567.27;1670411;86;21334;-69
2020/12/12 03:11:34;;;;;;;23.60;12.78;;;;;;;-1.68;75.99;99569.86;1671121;86;21335;-69
2020/12/12 03:14:01;;;;;;;27.05;13.62;;;;;;;-1.74;76.01;99563.52;1671112;86;21631;-68
2020/12/12 03:16:29;;;;;;;24.12;11.03;;;;;;;-1.74;75.69;99555.74;1654791;86;21593;-68
2020/12/12 03:18:57;;;;;;;23.83;12.47;;;;;;;-1.75;75.79;99557.92;1671386;85;21205;-68
2020/12/12 03:21:24;;;;;;;23.73;11.90;;;;;;;-1.72;75.76;99568.23;1670938;86;21311;-68
2020/12/12 03:23:51;;;;;;;23.15;12.35;;;;;;;-1.76;75.67;99562.72;1670955;86;21191;-68
2020/12/12 03:26:18;;;;;;;25.77;11.80;;;;;;;-1.73;75.71;99562.64;1661743;86;21225;-68
2020/12/12 03:28:46;;;;;;;24.43;12.00;;;;;;;-1.72;75.65;99559.16;1642550;87;21694;-68
2020/12/12 03:31:14;;;;;;;28.15;12.28;;;;;;;-1.77;75.64;99567.48;1642572;87;21370;-68
2020/12/12 03:33:41;;;;;;;21.85;12.13;;;;;;;-1.74;75.64;99563.09;1642356;87;21370;-68
2020/12/12 03:36:09;;;;;;;22.87;12.53;;;;;;;-1.81;75.70;99571.43;1670071;86;22189;-68
2020/12/12 03:38:36;;;;;;;24.07;11.93;;;;;;;-1.81;75.48;99566.24;1670929;86;21333;-68
2020/12/12 03:41:04;;;;;;;24.70;12.60;;;;;;;-1.86;75.73;99564.20;1671316;86;21337;-68
2020/12/12 03:43:31;;;;;;;20.60;11.53;;;;;;;-1.86;75.52;99571.98;1671221;86;21744;-68
2020/12/12 03:45:58;;;;;;;20.88;11.83;;;;;;;-1.86;75.64;99569.38;1670980;86;21194;-69
2020/12/12 03:48:26;;;;;;;23.65;12.03;;;;;;;-1.83;75.60;99577.11;1670961;86;21337;-68
2020/12/12 03:50:54;;;;;;;21.55;12.13;;;;;;;-1.88;75.60;99575.06;1671010;86;21171;-68
2020/12/12 03:53:22;;;;;;;24.55;12.05;;;;;;;-1.91;75.38;99567.34;1682222;84;21222;-68
2020/12/12 03:55:50;;;;;;;24.18;12.60;;;;;;;-1.94;75.54;99570.02;1723012;82;21170;-68
2020/12/12 03:58:17;;;;;;;21.02;12.20;;;;;;;-1.98;75.42;99578.75;1717890;83;21686;-68
2020/12/12 04:00:44;;;;;;;22.77;12.10;;;;;;;-1.99;75.35;99584.81;1717846;82;21309;-68
2020/12/12 04:03:13;;;;;;;25.75;12.65;;;;;;;-1.96;75.35;99569.19;1717809;82;21159;-68
2020/12/12 04:05:44;;;;;;;23.45;12.20;;;;;;;-1.94;74.99;99566.13;1716650;82;21383;-68
2020/12/12 04:08:11;;;;;;;24.40;11.85;;;;;;;-1.94;75.23;99570.02;1716174;83;21187;-68
2020/12/12 04:10:40;;;;;;;23.52;10.90;;;;;;;-1.94;75.21;99579.09;1713938;83;21622;-68
2020/12/12 04:13:07;;;;;;;22.20;11.68;;;;;;;-1.94;75.26;99558.77;1717209;82;21195;-68
2020/12/12 04:15:38;;;;;;;24.43;12.80;;;;;;;-1.98;75.38;99565.33;1718075;83;21182;-68
2020/12/12 04:18:06;;;;;;;24.05;12.15;;;;;;;-1.95;75.33;99563.58;1718066;83;21332;-68
2020/12/12 04:20:33;;;;;;;20.77;11.78;;;;;;;-2.04;75.37;99564.17;1717873;83;21662;-68
2020/12/12 04:23:00;;;;;;;23.50;12.13;;;;;;;-2.07;75.26;99559.48;1718110;83;21627;-68
2020/12/12 04:25:28;;;;;;;21.35;11.43;;;;;;;-2.07;75.39;99551.72;1741750;82;21163;-68
2020/12/12 04:27:55;;;;;;;20.43;11.28;;;;;;;-2.13;75.30;99566.13;1722431;82;21265;-68
2020/12/12 04:30:22;;;;;;;24.70;11.05;;;;;;;-2.16;75.33;99554.92;1712489;83;21615;-68
2020/12/12 04:32:50;;;;;;;24.27;12.70;;;;;;;-2.13;75.22;99551.42;1677744;85;21728;-68
2020/12/12 04:35:18;;;;;;;23.00;12.15;;;;;;;-2.15;74.96;99547.99;1722839;83;21164;-68
2020/12/12 04:37:45;;;;;;;22.45;11.80;;;;;;;-2.16;75.22;99568.34;1732848;83;21177;-68
2020/12/12 04:40:12;;;;;;;23.52;12.07;;;;;;;-2.15;75.17;99552.75;1733082;83;21322;-68
2020/12/12 04:42:42;;;;;;;22.77;12.80;;;;;;;-2.21;75.56;99552.88;1732920;83;21837;-68
2020/12/12 04:45:20;;;;;;;23.95;10.78;;;;;;;-2.21;75.57;99543.81;1732823;83;21154;-67
2020/12/12 04:47:44;;;;;;;25.02;11.78;;;;;;;-2.22;75.22;99547.28;1732376;82;21286;-68
2020/12/12 04:50:12;;;;;;;24.18;11.55;;;;;;;-2.21;75.17;99555.89;1732816;83;21342;-68
2020/12/12 04:52:42;;;;;;;24.65;10.45;;;;;;;-2.21;75.02;99555.89;1732110;82;21782;-68
2020/12/12 04:55:09;;;;;;;20.97;11.55;;;;;;;-2.22;75.04;99552.46;1747699;82;21587;-67
2020/12/12 04:57:40;;;;;;;21.93;11.15;;;;;;;-2.22;74.55;99546.44;1747451;82;21179;-67
2020/12/12 05:00:12;;;;;;;20.68;10.72;;;;;;;-2.23;74.54;99540.84;1747420;82;21591;-68
2020/12/12 05:02:40;;;;;;;18.37;10.18;;;;;;;-2.28;74.65;99544.81;1745022;82;21203;-67
2020/12/12 05:05:07;;;;;;;22.05;11.50;;;;;;;-2.29;74.47;99544.85;1677247;85;21365;-68
2020/12/12 05:07:35;;;;;;;21.45;10.72;;;;;;;-2.29;74.66;99540.52;1677618;85;22124;-68
2020/12/12 05:10:06;;;;;;;19.05;11.20;;;;;;;-2.29;74.64;99542.27;1677309;85;21481;-67
2020/12/12 05:12:34;;;;;;;21.97;11.33;;;;;;;-2.31;74.80;99538.42;1677233;85;21191;-68
2020/12/12 05:15:02;;;;;;;20.62;10.75;;;;;;;-2.35;74.65;99541.51;1658663;86;21198;-68
2020/12/12 05:17:30;;;;;;;19.30;10.32;;;;;;;-2.33;74.67;99528.09;1717656;83;21202;-68
2020/12/12 05:19:59;;;;;;;22.50;11.25;;;;;;;-2.36;74.70;99531.19;1717976;83;21702;-67
2020/12/12 05:22:26;;;;;;;17.80;10.48;;;;;;;-2.39;74.72;99530.80;1717691;83;21333;-68
2020/12/12 05:24:54;;;;;;;21.70;10.80;;;;;;;-2.40;74.32;99529.55;1718777;82;21293;-68
2020/12/12 05:27:22;;;;;;;18.07;10.95;;;;;;;-2.45;74.12;99530.93;1717642;83;21218;-68
2020/12/12 05:29:49;;;;;;;20.90;10.40;;;;;;;-2.42;74.14;99533.90;1696551;82;21175;-68
2020/12/12 05:32:17;;;;;;;22.05;10.82;;;;;;;-2.47;74.17;99539.16;1746910;82;21324;-68
2020/12/12 05:34:45;;;;;;;20.15;10.38;;;;;;;-2.45;74.16;99538.70;1747480;82;21138;-68
2020/12/12 05:37:14;;;;;;;20.15;10.95;;;;;;;-2.51;74.33;99540.95;1726722;82;21163;-68
2020/12/12 05:39:41;;;;;;;20.80;11.05;;;;;;;-2.50;73.49;99537.48;1694566;82;21340;-68
2020/12/12 05:42:09;;;;;;;20.35;10.93;;;;;;;-2.58;73.09;99554.05;1733375;82;21568;-68
2020/12/12 05:44:36;;;;;;;18.55;10.70;;;;;;;-2.60;73.02;99548.08;1732879;83;21192;-67
2020/12/12 05:47:03;;;;;;;20.62;11.08;;;;;;;-2.60;72.90;99543.73;1731811;83;21159;-67
2020/12/12 05:49:33;;;;;;;21.68;10.95;;;;;;;-2.62;72.99;99542.93;1732977;82;21238;-67
2020/12/12 05:52:00;;;;;;;19.73;10.68;;;;;;;-2.65;72.98;99552.03;1731632;82;21151;-67
2020/12/12 05:54:29;;;;;;;21.65;10.70;;;;;;;-2.64;73.11;99558.92;1714642;83;21143;-67
2020/12/12 05:56:59;;;;;;;19.52;11.30;;;;;;;-2.67;73.00;99553.81;1733218;82;21298;-67
2020/12/12 05:59:27;;;;;;;22.13;11.53;;;;;;;-2.71;73.22;99531.44;1733369;83;21139;-67
2020/12/12 06:01:54;;;;;;;18.67;9.80;;;;;;;-2.73;73.31;99540.53;1732502;83;21199;-68
2020/12/12 06:04:24;;;;;;;16.35;9.35;;;;;;;-2.76;73.34;99534.56;1732924;83;21313;-68
2020/12/12 06:06:53;;;;;;;18.67;11.22;;;;;;;-2.84;73.55;99540.75;1733159;83;21341;-68
2020/12/12 06:09:20;;;;;;;20.85;11.48;;;;;;;-2.86;73.48;99536.03;1667995;83;21200;-68
2020/12/12 06:11:47;;;;;;;17.92;10.48;;;;;;;-2.82;73.67;99535.09;1729540;82;21674;-68
2020/12/12 06:14:14;;;;;;;20.12;12.28;;;;;;;-2.84;73.87;99535.58;1723901;83;21170;-69
2020/12/12 06:16:41;;;;;;;21.17;11.68;;;;;;;-2.77;73.69;99535.47;1711978;84;21190;-67
2020/12/12 06:19:17;;;;;;;27.62;14.95;;;;;;;-2.78;73.79;99544.11;1729513;82;21722;-68
2020/12/12 06:21:48;;;;;;;21.87;12.03;;;;;;;-2.77;73.50;99541.94;1732469;82;21329;-69
2020/12/12 06:24:19;;;;;;;22.77;12.07;;;;;;;-2.77;73.49;99551.00;1745419;82;21435;-69
2020/12/12 06:27:08;;;;;;;23.65;11.57;;;;;;;-2.82;73.27;99548.03;1747870;82;21603;-69
2020/12/12 06:29:44;;;;;;;18.20;11.00;;;;;;;-2.84;73.19;99555.41;1712007;82;21570;-68
2020/12/12 06:32:17;;;;;;;21.35;11.75;;;;;;;-2.87;73.47;99550.30;1726144;82;21184;-69
2020/12/12 06:34:50;;;;;;;21.37;11.70;;;;;;;-2.86;73.10;99548.98;1724821;82;21168;-67
2020/12/12 06:37:30;;;;;;;22.97;11.93;;;;;;;-2.86;73.36;99545.09;1733460;82;21757;-69
2020/12/12 06:40:02;;;;;;;20.62;11.70;;;;;;;-2.88;73.62;99548.14;1747786;82;22439;-68
2020/12/12 06:42:40;;;;;;;22.65;12.37;;;;;;;-2.86;73.57;99559.33;1819140;79;23471;-68
2020/12/12 06:45:22;;;;;;;20.00;11.65;;;;;;;-2.92;73.37;99546.95;1785300;80;21099;-68
2020/12/12 06:47:53;;;;;;;22.85;11.85;;;;;;;-2.98;73.11;99545.31;1787121;80;21250;-68
2020/12/12 06:50:31;;;;;;;25.52;12.88;;;;;;;-2.93;73.27;99546.08;1710117;83;21188;-68
2020/12/12 06:52:56;;;;;;;21.35;12.33;;;;;;;-2.94;73.57;99551.28;1720320;83;21162;-68
2020/12/12 06:55:24;;;;;;;25.48;12.37;;;;;;;-2.93;73.51;99538.77;1719679;83;21646;-68
2020/12/12 06:57:57;;;;;;;19.98;11.20;;;;;;;-2.91;73.47;99533.98;1748275;81;21320;-67
2020/12/12 07:00:30;;;;;;;23.65;12.20;;;;;;;-2.89;73.70;99536.11;1742606;81;21166;-69
2020/12/12 07:03:04;;;;;;;26.12;12.82;;;;;;;-2.86;73.66;99530.86;1752709;81;21179;-68
2020/12/12 07:05:33;;;;;;;20.40;12.05;;;;;;;-2.83;73.48;99537.26;1747125;81;21178;-68
2020/12/12 07:08:09;;;;;;;26.10;12.15;;;;;;;-2.85;73.48;99536.45;1741304;81;21308;-69
2020/12/12 07:10:40;;;;;;;20.12;10.08;;;;;;;-2.78;73.25;99529.88;1727737;82;21139;-69
2020/12/12 07:13:09;;;;;;;20.12;11.43;;;;;;;-2.80;73.42;99535.92;1756214;80;21158;-68
2020/12/12 07:15:37;;;;;;;18.10;10.93;;;;;;;-2.81;73.43;99523.86;1712984;83;21172;-68
2020/12/12 07:18:07;;;;;;;20.50;11.18;;;;;;;-2.82;73.20;99526.03;1746507;82;21176;-68
2020/12/12 07:20:49;;;;;;;22.30;12.00;;;;;;;-2.86;73.43;99525.69;1729297;83;21321;-67
2020/12/12 07:23:18;;;;;;;19.37;10.98;;;;;;;-2.82;73.61;99529.91;1760884;81;21146;-68
2020/12/12 07:25:45;;;;;;;19.90;12.13;;;;;;;-2.78;73.53;99513.05;1757966;81;21344;-69
2020/12/12 07:28:13;;;;;;;21.60;12.00;;;;;;;-2.82;73.62;99505.33;1713943;83;21171;-69
2020/12/12 07:30:40;;;;;;;20.95;10.98;;;;;;;-2.77;73.49;99501.81;1706779;83;21576;-69
2020/12/12 07:33:07;;;;;;;20.68;11.53;;;;;;;-2.75;73.67;99503.49;1699351;83;21304;-69
2020/12/12 07:35:35;;;;;;;23.70;12.30;;;;;;;-2.72;73.68;99506.00;1724315;83;21143;-69
2020/12/12 07:38:05;;;;;;;23.47;12.88;;;;;;;-2.68;73.68;99517.16;1724368;83;21159;-69
2020/12/12 07:40:35;;;;;;;21.68;11.12;;;;;;;-2.66;73.53;99503.72;1724207;83;21621;-69
2020/12/12 07:43:09;;;;;;;19.15;10.08;;;;;;;-2.66;73.51;99516.24;1706532;83;21171;-69
2020/12/12 07:48:09;;;;;;;20.02;10.28;;;;;;;-2.66;73.71;99515.38;1686947;84;21162;-69
2020/12/12 07:50:37;;;;;;;18.52;10.08;;;;;;;-2.67;73.83;99518.87;1679738;84;21173;-69
2020/12/12 07:53:12;;;;;;;20.50;11.40;;;;;;;-2.60;73.35;99522.19;1679472;84;21192;-68
2020/12/12 07:55:44;;;;;;;21.35;10.68;;;;;;;-2.62;73.55;99517.05;1679461;84;21636;-68
2020/12/12 07:58:26;;;;;;;21.87;10.75;;;;;;;-2.62;73.43;99517.05;1685298;84;21580;-68
2020/12/12 08:01:04;;;;;;;23.47;11.93;;;;;;;-2.61;73.57;99507.06;1707490;84;21342;-67
2020/12/12 08:03:34;;;;;;;25.32;11.50;;;;;;;-2.62;73.58;99511.86;1678752;85;21330;-68
2020/12/12 08:06:09;;;;;;;21.37;11.55;;;;;;;-2.62;73.55;99517.05;1649637;84;21703;-68
2020/12/12 08:08:38;;;;;;;21.80;10.68;;;;;;;-2.60;73.80;99510.08;1746015;81;21157;-68
2020/12/12 08:11:06;;;;;;;20.25;10.65;;;;;;;-2.62;73.84;99513.16;1741781;81;21135;-68
2020/12/12 08:13:34;;;;;;;21.90;11.83;;;;;;;-2.60;74.21;99515.25;1751240;81;21172;-69
2020/12/12 08:16:17;;;;;;;26.07;12.70;;;;;;;-2.61;74.31;99509.66;1749750;81;21683;-68
2020/12/12 08:18:39;;;;;;;21.52;11.50;;;;;;;-2.59;74.29;99504.02;1741360;81;21357;-68
2020/12/12 08:21:18;;;;;;;19.17;10.75;;;;;;;-2.55;73.82;99516.02;1741712;82;21192;-68
2020/12/12 08:23:46;;;;;;;20.43;10.75;;;;;;;-2.55;73.95;99505.66;1741511;81;21124;-67
2020/12/12 08:26:20;;;;;;;24.23;12.55;;;;;;;-2.56;74.23;99513.01;1742117;81;21136;-68
2020/12/12 08:28:49;;;;;;;21.75;10.80;;;;;;;-2.54;74.43;99507.82;1741305;82;21160;-68
2020/12/12 08:31:18;;;;;;;30.32;14.18;;;;;;;-2.58;73.92;99504.44;1746413;81;21158;-68
2020/12/12 08:33:55;;;;;;;67.25;24.92;;;;;;;-2.48;74.82;99499.93;1720322;82;21135;-68
2020/12/12 08:36:25;;;;;;;24.98;11.93;;;;;;;-2.36;74.23;99513.05;1745751;82;21161;-69
2020/12/12 08:38:56;;;;;;;24.85;12.15;;;;;;;-2.32;73.85;99501.73;1742188;81;21187;-69
2020/12/12 08:41:39;;;;;;;24.90;12.75;;;;;;;-2.29;73.67;99509.42;1741312;82;21198;-70
2020/12/12 08:44:07;;;;;;;25.00;11.57;;;;;;;-2.30;73.49;99510.34;1741558;81;21108;-67
2020/12/12 08:46:35;;;;;;;23.95;12.20;;;;;;;-2.34;73.19;99513.43;1746216;81;21191;-69
2020/12/12 08:49:15;;;;;;;23.70;12.20;;;;;;;-2.29;73.80;99512.02;1746110;81;21620;-68
2020/12/12 08:51:42;;;;;;;20.25;11.03;;;;;;;-2.29;73.75;99501.66;1762805;81;21298;-70
2020/12/12 08:54:12;;;;;;;23.75;12.13;;;;;;;-2.30;73.37;99505.16;1713472;82;21144;-70
2020/12/12 08:56:39;;;;;;;20.25;10.68;;;;;;;-2.32;73.75;99499.14;1741716;82;21093;-68
2020/12/12 08:59:19;;;;;;;23.18;12.05;;;;;;;-2.25;73.92;99491.66;1742631;81;21108;-68
2020/12/12 09:01:47;;;;;;;25.08;14.18;;;;;;;-2.29;73.69;99493.89;1744443;81;21599;-68
2020/12/12 09:04:22;;;;;;;21.23;12.40;;;;;;;-2.25;74.00;99491.66;1742604;82;21152;-68
2020/12/12 09:06:54;;;;;;;26.77;13.13;;;;;;;-2.23;73.98;99484.69;1743531;82;21207;-68
2020/12/12 09:09:29;;;;;;;27.62;13.00;;;;;;;-2.21;74.01;99489.41;1743956;82;21568;-68
2020/12/12 09:12:03;;;;;;;25.25;12.80;;;;;;;-2.20;73.98;99478.16;1743769;82;21636;-68
2020/12/12 09:14:32;;;;;;;23.22;12.18;;;;;;;-2.16;73.73;99492.74;1743880;82;21172;-70
2020/12/12 09:17:02;;;;;;;26.62;12.15;;;;;;;-2.16;73.95;99474.61;1743638;82;21254;-68
2020/12/12 09:19:31;;;;;;;22.15;11.53;;;;;;;-2.15;73.95;99478.91;1743622;82;21132;-68
2020/12/12 09:21:59;;;;;;;25.15;14.45;;;;;;;-2.12;74.13;99486.19;1743865;82;21354;-68
2020/12/12 09:24:26;;;;;;;27.32;13.40;;;;;;;-2.09;73.87;99470.13;1743775;82;21759;-68
2020/12/12 09:26:56;;;;;;;27.27;13.55;;;;;;;-2.10;73.49;99472.77;1743426;82;21353;-70
2020/12/12 09:29:25;;;;;;;25.15;13.10;;;;;;;-2.11;73.64;99465.88;1743851;82;21728;-69
2020/12/12 09:31:54;;;;;;;26.15;14.00;;;;;;;-2.10;73.80;99464.99;1743734;82;21597;-69
2020/12/12 09:34:23;;;;;;;22.00;12.37;;;;;;;-2.09;73.75;99461.52;1743547;82;21152;-69
2020/12/12 09:36:52;;;;;;;22.62;12.63;;;;;;;-2.09;73.62;99457.63;1743773;82;21286;-69
2020/12/12 09:39:20;;;;;;;22.75;12.88;;;;;;;-2.12;73.77;99458.98;1743512;82;21746;-69
2020/12/12 09:41:47;;;;;;;27.58;12.75;;;;;;;-2.09;73.65;99450.70;1743413;81;21791;-69
2020/12/12 09:44:14;;;;;;;24.37;13.70;;;;;;;-2.12;74.14;99449.91;1743972;82;21683;-69
2020/12/12 09:46:42;;;;;;;23.35;13.08;;;;;;;-2.09;74.18;99449.86;1743633;82;21298;-69
2020/12/12 09:49:11;;;;;;;26.50;13.28;;;;;;;-2.12;74.28;99442.14;1743791;82;21706;-69
2020/12/12 09:51:40;;;;;;;22.93;13.43;;;;;;;-2.05;74.02;99436.77;1743444;82;21188;-69
2020/12/12 09:54:07;;;;;;;24.20;12.65;;;;;;;-2.04;74.12;99433.75;1743508;82;21203;-69
2020/12/12 09:56:35;;;;;;;28.65;12.90;;;;;;;-1.99;73.68;99425.42;1743462;82;21175;-69
2020/12/12 09:59:04;;;;;;;23.65;13.75;;;;;;;-1.97;73.90;99427.52;1743784;82;21774;-69
2020/12/12 10:01:33;;;;;;;24.92;12.65;;;;;;;-1.93;73.73;99422.69;1743815;82;21338;-69
2020/12/12 10:04:01;;;;;;;24.32;12.55;;;;;;;-1.91;73.53;99420.89;1743494;82;21187;-70
2020/12/12 10:06:28;;;;;;;26.75;13.70;;;;;;;-1.93;73.35;99413.63;1743598;82;21173;-69
2020/12/12 10:08:55;;;;;;;23.30;11.85;;;;;;;-1.91;73.40;99418.30;1743699;82;21184;-69
2020/12/12 10:11:23;;;;;;;26.00;13.13;;;;;;;-1.95;73.71;99415.38;1743667;82;21616;-70
2020/12/12 10:13:50;;;;;;;24.12;13.68;;;;;;;-1.89;73.84;99412.64;1743755;82;21338;-69
2020/12/12 10:16:21;;;;;;;26.85;13.05;;;;;;;-1.93;73.89;99409.73;1743588;82;21319;-68
2020/12/12 10:18:49;;;;;;;27.35;13.85;;;;;;;-1.89;73.84;99405.30;1743566;82;21137;-69
2020/12/12 10:21:17;;;;;;;26.90;13.20;;;;;;;-1.94;73.84;99411.04;1743569;82;21157;-69
2020/12/12 10:23:44;;;;;;;28.10;13.75;;;;;;;-1.92;73.87;99411.41;1743658;82;21325;-70
2020/12/12 10:26:13;;;;;;;27.42;14.53;;;;;;;-1.96;74.12;99407.20;1743868;82;21290;-69
2020/12/12 10:28:40;;;;;;;25.72;13.48;;;;;;;-1.94;73.95;99403.27;1743585;82;21310;-69
2020/12/12 10:31:07;;;;;;;28.65;13.48;;;;;;;-1.94;73.70;99400.25;1743625;82;21290;-69
2020/12/12 10:33:35;;;;;;;22.22;11.90;;;;;;;-1.94;73.75;99398.08;1743530;82;21318;-69
2020/12/12 10:36:04;;;;;;;24.20;13.68;;;;;;;-1.94;73.83;99393.77;1745308;81;21624;-69
2020/12/12 10:38:35;;;;;;;26.57;13.62;;;;;;;-2.00;73.61;99397.34;1743741;82;21191;-69
2020/12/12 10:41:11;;;;;;;24.72;13.55;;;;;;;-2.01;73.29;99401.28;1743645;82;21574;-69
2020/12/12 10:43:32;;;;;;;28.85;14.38;;;;;;;-2.06;73.58;99404.42;1744139;81;21306;-69
2020/12/12 10:46:02;;;;;;;26.77;12.98;;;;;;;-2.08;73.61;99389.38;1743635;82;21313;-68
2020/12/12 10:48:28;;;;;;;23.98;12.68;;;;;;;-2.13;73.49;99399.84;1743484;82;21189;-69
2020/12/12 10:50:58;;;;;;;23.98;13.10;;;;;;;-2.13;73.31;99402.89;1743779;82;21113;-69
2020/12/12 10:53:26;;;;;;;25.05;14.47;;;;;;;-2.22;73.66;99411.27;1743453;82;21188;-69
2020/12/12 10:55:53;;;;;;;27.15;13.15;;;;;;;-2.20;73.87;99396.55;1743768;82;21510;-68
2020/12/12 10:58:20;;;;;;;28.62;13.55;;;;;;;-2.20;73.65;99392.67;1743661;82;21346;-69
2020/12/12 11:00:50;;;;;;;24.37;13.43;;;;;;;-2.19;73.72;99398.69;1743522;82;21318;-68
2020/12/12 11:03:16;;;;;;;25.50;13.48;;;;;;;-2.21;73.82;99385.78;1743855;82;21184;-69
2020/12/12 11:05:43;;;;;;;26.15;14.83;;;;;;;-2.26;73.75;99395.40;1743707;82;21307;-69
2020/12/12 11:08:10;;;;;;;24.98;14.10;;;;;;;-2.24;73.58;99389.72;1699176;82;21184;-69
2020/12/12 11:10:38;;;;;;;26.90;14.18;;;;;;;-2.27;73.61;99391.09;1743676;82;21736;-69
2020/12/12 11:13:06;;;;;;;29.60;15.10;;;;;;;-2.24;73.57;99394.06;1743445;82;21353;-68
2020/12/12 11:15:38;;;;;;;24.40;14.20;;;;;;;-2.23;73.78;99395.31;1743562;82;21282;-69
2020/12/12 11:18:04;;;;;;;25.70;14.35;;;;;;;-2.26;73.27;99397.98;1743420;82;21152;-68
2020/12/12 11:20:31;;;;;;;24.95;13.72;;;;;;;-2.26;73.49;99396.69;1743596;82;21175;-69
2020/12/12 11:22:58;;;;;;;25.23;12.98;;;;;;;-2.28;73.53;99398.45;1743682;82;21208;-68
2020/12/12 11:25:25;;;;;;;25.25;13.03;;;;;;;-2.34;73.54;99407.66;1743489;81;21723;-68
2020/12/12 11:27:54;;;;;;;25.62;13.75;;;;;;;-2.38;73.33;99411.22;1743796;82;21191;-67